sensor_id;sensor_type;location;lat;lon;timestamp;P1;durP1;ratioP1;P2;durP2;ratioP2
19414;SDS011;9843;48.882;12.592;2023-07-13T00:00:36;29.73;;;22.87;;
19414;SDS011;9843;48.882;12.592;2023-07-13T00:03:03;18.83;;;14.97;;
19414;SDS011;9843;48.882;12.592;2023-07-13T00:05:30;16.47;;;10.80;;
19414;SDS011;9843;48.882;12.592;2023-07-13T00:07:58;12.83;;;8.53;;
19414;SDS011;9843;48.882;12.592;2023-07-13T00:10:25;16.20;;;8.17;;
19414;SDS011;9843;48.882;12.592;2023-07-13T00:12:52;13.23;;;8.20;;
19414;SDS011;9843;48.882;12.592;2023-07-13T00:15:22;9.13;;;7.37;;
19414;SDS011;9843;48.882;12.592;2023-07-13T00:17:49;9.30;;;8.07;;
19414;SDS011;9843;48.882;12.592;2023-07-13T00:20:16;7.17;;;6.40;;
19414;SDS011;9843;48.882;12.592;2023-07-13T00:22:46;8.27;;;7.07;;
19414;SDS011;9843;48.882;12.592;2023-07-13T00:25:13;12.00;;;8.00;;
19414;SDS011;9843;48.882;12.592;2023-07-13T00:27:41;8.60;;;6.77;;
19414;SDS011;9843;48.882;12.592;2023-07-13T00:30:09;12.13;;;7.97;;
19414;SDS011;9843;48.882;12.592;2023-07-13T00:32:38;8.03;;;7.17;;
19414;SDS011;9843;48.882;12.592;2023-07-13T00:35:05;8.90;;;6.20;;
19414;SDS011;9843;48.882;12.592;2023-07-13T00:37:32;9.87;;;7.43;;
19414;SDS011;9843;48.882;12.592;2023-07-13T00:40:00;8.70;;;6.43;;
19414;SDS011;9843;48.882;12.592;2023-07-13T00:42:28;11.20;;;6.20;;
19414;SDS011;9843;48.882;12.592;2023-07-13T00:45:05;9.77;;;6.83;;
19414;SDS011;9843;48.882;12.592;2023-07-13T00:47:32;8.53;;;6.23;;
19414;SDS011;9843;48.882;12.592;2023-07-13T00:50:00;10.07;;;6.63;;
19414;SDS011;9843;48.882;12.592;2023-07-13T00:52:28;7.47;;;6.17;;
19414;SDS011;9843;48.882;12.592;2023-07-13T00:54:55;16.33;;;7.83;;
19414;SDS011;9843;48.882;12.592;2023-07-13T00:57:22;8.27;;;6.30;;
19414;SDS011;9843;48.882;12.592;2023-07-13T00:59:52;6.53;;;5.33;;
19414;SDS011;9843;48.882;12.592;2023-07-13T01:02:19;8.80;;;5.93;;
19414;SDS011;9843;48.882;12.592;2023-07-13T01:04:46;8.53;;;5.60;;
19414;SDS011;9843;48.882;12.592;2023-07-13T01:07:15;7.07;;;6.40;;
19414;SDS011;9843;48.882;12.592;2023-07-13T01:09:42;9.17;;;6.27;;
19414;SDS011;9843;48.882;12.592;2023-07-13T01:12:10;7.10;;;6.00;;
19414;SDS011;9843;48.882;12.592;2023-07-13T01:14:38;8.33;;;7.20;;
19414;SDS011;9843;48.882;12.592;2023-07-13T01:17:05;11.37;;;7.63;;
19414;SDS011;9843;48.882;12.592;2023-07-13T01:19:36;9.83;;;5.83;;
19414;SDS011;9843;48.882;12.592;2023-07-13T01:22:06;6.37;;;5.67;;
19414;SDS011;9843;48.882;12.592;2023-07-13T01:24:34;7.70;;;5.90;;
19414;SDS011;9843;48.882;12.592;2023-07-13T01:27:02;13.73;;;6.37;;
19414;SDS011;9843;48.882;12.592;2023-07-13T01:29:31;8.13;;;7.33;;
19414;SDS011;9843;48.882;12.592;2023-07-13T01:31:58;7.97;;;6.53;;
19414;SDS011;9843;48.882;12.592;2023-07-13T01:34:26;9.20;;;5.87;;
19414;SDS011;9843;48.882;12.592;2023-07-13T01:36:53;7.83;;;6.07;;
19414;SDS011;9843;48.882;12.592;2023-07-13T01:39:21;11.57;;;7.40;;
19414;SDS011;9843;48.882;12.592;2023-07-13T01:41:49;8.80;;;6.27;;
19414;SDS011;9843;48.882;12.592;2023-07-13T01:44:16;8.40;;;5.80;;
19414;SDS011;9843;48.882;12.592;2023-07-13T01:46:43;8.03;;;5.87;;
19414;SDS011;9843;48.882;12.592;2023-07-13T01:49:11;7.83;;;5.10;;
19414;SDS011;9843;48.882;12.592;2023-07-13T01:51:38;12.93;;;6.17;;
19414;SDS011;9843;48.882;12.592;2023-07-13T01:54:05;10.00;;;6.60;;
19414;SDS011;9843;48.882;12.592;2023-07-13T01:56:33;7.90;;;6.27;;
19414;SDS011;9843;48.882;12.592;2023-07-13T01:59:00;7.20;;;5.53;;
19414;SDS011;9843;48.882;12.592;2023-07-13T02:01:27;6.47;;;5.77;;
19414;SDS011;9843;48.882;12.592;2023-07-13T02:03:54;8.13;;;5.13;;
19414;SDS011;9843;48.882;12.592;2023-07-13T02:06:21;6.17;;;4.50;;
19414;SDS011;9843;48.882;12.592;2023-07-13T02:08:48;5.87;;;5.33;;
19414;SDS011;9843;48.882;12.592;2023-07-13T02:11:15;6.73;;;5.40;;
19414;SDS011;9843;48.882;12.592;2023-07-13T02:13:43;6.73;;;4.33;;
19414;SDS011;9843;48.882;12.592;2023-07-13T02:16:10;10.00;;;5.47;;
19414;SDS011;9843;48.882;12.592;2023-07-13T02:18:38;8.93;;;4.97;;
19414;SDS011;9843;48.882;12.592;2023-07-13T02:21:05;7.90;;;4.70;;
19414;SDS011;9843;48.882;12.592;2023-07-13T02:23:32;5.90;;;5.10;;
19414;SDS011;9843;48.882;12.592;2023-07-13T02:25:59;8.97;;;4.17;;
19414;SDS011;9843;48.882;12.592;2023-07-13T02:28:27;6.67;;;4.50;;
19414;SDS011;9843;48.882;12.592;2023-07-13T02:31:03;9.13;;;4.93;;
19414;SDS011;9843;48.882;12.592;2023-07-13T02:33:30;7.40;;;4.13;;
19414;SDS011;9843;48.882;12.592;2023-07-13T02:35:57;5.03;;;4.60;;
19414;SDS011;9843;48.882;12.592;2023-07-13T02:38:24;7.17;;;5.60;;
19414;SDS011;9843;48.882;12.592;2023-07-13T02:40:52;6.13;;;4.37;;
19414;SDS011;9843;48.882;12.592;2023-07-13T02:43:19;9.27;;;5.57;;
19414;SDS011;9843;48.882;12.592;2023-07-13T02:45:46;5.77;;;3.77;;
19414;SDS011;9843;48.882;12.592;2023-07-13T02:48:14;8.20;;;5.77;;
19414;SDS011;9843;48.882;12.592;2023-07-13T02:50:41;5.97;;;3.90;;
19414;SDS011;9843;48.882;12.592;2023-07-13T02:53:08;8.37;;;4.97;;
19414;SDS011;9843;48.882;12.592;2023-07-13T02:55:36;8.67;;;4.20;;
19414;SDS011;9843;48.882;12.592;2023-07-13T02:58:03;13.03;;;6.50;;
19414;SDS011;9843;48.882;12.592;2023-07-13T03:00:30;8.13;;;4.30;;
19414;SDS011;9843;48.882;12.592;2023-07-13T03:02:58;25.57;;;6.73;;
19414;SDS011;9843;48.882;12.592;2023-07-13T03:05:26;7.97;;;5.17;;
19414;SDS011;9843;48.882;12.592;2023-07-13T03:07:53;11.87;;;3.60;;
19414;SDS011;9843;48.882;12.592;2023-07-13T03:10:20;4.30;;;3.87;;
19414;SDS011;9843;48.882;12.592;2023-07-13T03:12:47;15.70;;;5.73;;
19414;SDS011;9843;48.882;12.592;2023-07-13T03:15:14;8.37;;;4.73;;
19414;SDS011;9843;48.882;12.592;2023-07-13T03:17:41;10.00;;;4.90;;
19414;SDS011;9843;48.882;12.592;2023-07-13T03:20:09;6.60;;;4.67;;
19414;SDS011;9843;48.882;12.592;2023-07-13T03:22:37;9.70;;;4.17;;
19414;SDS011;9843;48.882;12.592;2023-07-13T03:25:04;5.40;;;3.80;;
19414;SDS011;9843;48.882;12.592;2023-07-13T03:27:32;4.33;;;3.23;;
19414;SDS011;9843;48.882;12.592;2023-07-13T03:29:59;8.57;;;4.27;;
19414;SDS011;9843;48.882;12.592;2023-07-13T03:32:26;10.13;;;4.40;;
19414;SDS011;9843;48.882;12.592;2023-07-13T03:34:53;6.27;;;3.47;;
19414;SDS011;9843;48.882;12.592;2023-07-13T03:37:20;4.47;;;3.40;;
19414;SDS011;9843;48.882;12.592;2023-07-13T03:39:48;11.83;;;4.63;;
19414;SDS011;9843;48.882;12.592;2023-07-13T03:42:15;29.53;;;6.63;;
19414;SDS011;9843;48.882;12.592;2023-07-13T03:44:42;8.60;;;4.33;;
19414;SDS011;9843;48.882;12.592;2023-07-13T03:47:15;7.70;;;4.70;;
19414;SDS011;9843;48.882;12.592;2023-07-13T03:49:42;11.30;;;5.33;;
19414;SDS011;9843;48.882;12.592;2023-07-13T03:52:11;8.00;;;4.00;;
19414;SDS011;9843;48.882;12.592;2023-07-13T03:54:38;6.43;;;4.67;;
19414;SDS011;9843;48.882;12.592;2023-07-13T03:57:06;6.30;;;3.87;;
19414;SDS011;9843;48.882;12.592;2023-07-13T03:59:33;5.63;;;4.13;;
19414;SDS011;9843;48.882;12.592;2023-07-13T04:02:00;7.03;;;4.00;;
19414;SDS011;9843;48.882;12.592;2023-07-13T04:04:29;5.50;;;3.30;;
19414;SDS011;9843;48.882;12.592;2023-07-13T04:06:56;7.63;;;3.77;;
19414;SDS011;9843;48.882;12.592;2023-07-13T04:09:24;5.97;;;3.80;;
19414;SDS011;9843;48.882;12.592;2023-07-13T04:11:51;11.33;;;4.47;;
19414;SDS011;9843;48.882;12.592;2023-07-13T04:14:19;4.73;;;3.27;;
19414;SDS011;9843;48.882;12.592;2023-07-13T04:16:46;6.70;;;4.73;;
19414;SDS011;9843;48.882;12.592;2023-07-13T04:19:13;9.53;;;4.17;;
19414;SDS011;9843;48.882;12.592;2023-07-13T04:21:40;7.87;;;4.27;;
19414;SDS011;9843;48.882;12.592;2023-07-13T04:24:06;9.00;;;4.70;;
19414;SDS011;9843;48.882;12.592;2023-07-13T04:26:33;5.53;;;4.13;;
19414;SDS011;9843;48.882;12.592;2023-07-13T04:29:03;6.87;;;4.97;;
19414;SDS011;9843;48.882;12.592;2023-07-13T04:31:32;7.70;;;4.80;;
19414;SDS011;9843;48.882;12.592;2023-07-13T04:33:59;9.67;;;4.60;;
19414;SDS011;9843;48.882;12.592;2023-07-13T04:36:26;12.53;;;4.87;;
19414;SDS011;9843;48.882;12.592;2023-07-13T04:38:53;12.30;;;5.10;;
19414;SDS011;9843;48.882;12.592;2023-07-13T04:41:21;17.00;;;5.57;;
19414;SDS011;9843;48.882;12.592;2023-07-13T04:43:48;9.13;;;5.57;;
19414;SDS011;9843;48.882;12.592;2023-07-13T04:46:16;6.33;;;4.97;;
19414;SDS011;9843;48.882;12.592;2023-07-13T04:48:45;7.97;;;5.27;;
19414;SDS011;9843;48.882;12.592;2023-07-13T04:51:12;8.80;;;5.57;;
19414;SDS011;9843;48.882;12.592;2023-07-13T04:53:39;6.90;;;6.23;;
19414;SDS011;9843;48.882;12.592;2023-07-13T04:56:06;13.50;;;6.03;;
19414;SDS011;9843;48.882;12.592;2023-07-13T04:58:33;6.73;;;5.27;;
19414;SDS011;9843;48.882;12.592;2023-07-13T05:01:02;18.80;;;7.37;;
19414;SDS011;9843;48.882;12.592;2023-07-13T05:03:29;7.10;;;4.97;;
19414;SDS011;9843;48.882;12.592;2023-07-13T05:05:59;7.30;;;5.53;;
19414;SDS011;9843;48.882;12.592;2023-07-13T05:08:26;8.00;;;6.70;;
19414;SDS011;9843;48.882;12.592;2023-07-13T05:10:53;9.27;;;5.03;;
19414;SDS011;9843;48.882;12.592;2023-07-13T05:13:20;21.53;;;6.90;;
19414;SDS011;9843;48.882;12.592;2023-07-13T05:15:54;11.50;;;6.80;;
19414;SDS011;9843;48.882;12.592;2023-07-13T05:18:22;13.33;;;6.67;;
19414;SDS011;9843;48.882;12.592;2023-07-13T05:20:54;11.30;;;6.27;;
19414;SDS011;9843;48.882;12.592;2023-07-13T05:23:22;5.77;;;5.17;;
19414;SDS011;9843;48.882;12.592;2023-07-13T05:25:49;7.57;;;5.80;;
19414;SDS011;9843;48.882;12.592;2023-07-13T05:28:16;20.57;;;7.57;;
19414;SDS011;9843;48.882;12.592;2023-07-13T05:30:45;12.70;;;6.67;;
19414;SDS011;9843;48.882;12.592;2023-07-13T05:33:12;14.13;;;6.63;;
19414;SDS011;9843;48.882;12.592;2023-07-13T05:35:39;11.20;;;5.90;;
19414;SDS011;9843;48.882;12.592;2023-07-13T05:38:06;15.17;;;7.80;;
19414;SDS011;9843;48.882;12.592;2023-07-13T05:40:34;13.50;;;6.33;;
19414;SDS011;9843;48.882;12.592;2023-07-13T05:43:01;12.10;;;7.03;;
19414;SDS011;9843;48.882;12.592;2023-07-13T05:45:28;14.47;;;8.47;;
19414;SDS011;9843;48.882;12.592;2023-07-13T05:47:55;21.00;;;8.20;;
19414;SDS011;9843;48.882;12.592;2023-07-13T05:50:23;9.27;;;7.20;;
19414;SDS011;9843;48.882;12.592;2023-07-13T05:52:50;20.47;;;6.83;;
19414;SDS011;9843;48.882;12.592;2023-07-13T05:55:17;14.27;;;7.40;;
19414;SDS011;9843;48.882;12.592;2023-07-13T05:57:46;11.13;;;6.03;;
19414;SDS011;9843;48.882;12.592;2023-07-13T06:00:13;12.93;;;6.53;;
19414;SDS011;9843;48.882;12.592;2023-07-13T06:02:40;10.97;;;7.63;;
19414;SDS011;9843;48.882;12.592;2023-07-13T06:05:08;7.67;;;6.20;;
19414;SDS011;9843;48.882;12.592;2023-07-13T06:07:35;21.57;;;8.97;;
19414;SDS011;9843;48.882;12.592;2023-07-13T06:10:02;8.00;;;6.73;;
19414;SDS011;9843;48.882;12.592;2023-07-13T06:12:29;14.73;;;5.80;;
19414;SDS011;9843;48.882;12.592;2023-07-13T06:14:58;11.07;;;6.63;;
19414;SDS011;9843;48.882;12.592;2023-07-13T06:17:25;12.13;;;7.63;;
19414;SDS011;9843;48.882;12.592;2023-07-13T06:19:52;12.53;;;7.83;;
19414;SDS011;9843;48.882;12.592;2023-07-13T06:22:19;17.93;;;8.33;;
19414;SDS011;9843;48.882;12.592;2023-07-13T06:24:46;11.90;;;6.57;;
19414;SDS011;9843;48.882;12.592;2023-07-13T06:27:13;13.77;;;6.03;;
19414;SDS011;9843;48.882;12.592;2023-07-13T06:29:40;5.13;;;4.63;;
19414;SDS011;9843;48.882;12.592;2023-07-13T06:32:11;8.37;;;5.37;;
19414;SDS011;9843;48.882;12.592;2023-07-13T06:34:38;6.17;;;4.53;;
19414;SDS011;9843;48.882;12.592;2023-07-13T06:37:05;5.80;;;4.43;;
19414;SDS011;9843;48.882;12.592;2023-07-13T06:39:32;10.53;;;5.97;;
19414;SDS011;9843;48.882;12.592;2023-07-13T06:42:00;6.30;;;4.77;;
19414;SDS011;9843;48.882;12.592;2023-07-13T06:44:27;10.57;;;4.83;;
19414;SDS011;9843;48.882;12.592;2023-07-13T06:46:54;12.37;;;5.63;;
19414;SDS011;9843;48.882;12.592;2023-07-13T06:49:22;8.07;;;3.67;;
19414;SDS011;9843;48.882;12.592;2023-07-13T06:51:49;5.90;;;4.43;;
19414;SDS011;9843;48.882;12.592;2023-07-13T06:54:16;6.43;;;4.10;;
19414;SDS011;9843;48.882;12.592;2023-07-13T06:56:43;10.50;;;4.70;;
19414;SDS011;9843;48.882;12.592;2023-07-13T06:59:10;7.30;;;4.13;;
19414;SDS011;9843;48.882;12.592;2023-07-13T07:01:37;4.50;;;4.10;;
19414;SDS011;9843;48.882;12.592;2023-07-13T07:04:04;8.17;;;4.03;;
19414;SDS011;9843;48.882;12.592;2023-07-13T07:06:33;8.73;;;3.83;;
19414;SDS011;9843;48.882;12.592;2023-07-13T07:09:00;7.17;;;4.67;;
19414;SDS011;9843;48.882;12.592;2023-07-13T07:11:27;5.57;;;3.83;;
19414;SDS011;9843;48.882;12.592;2023-07-13T07:13:54;10.30;;;4.30;;
19414;SDS011;9843;48.882;12.592;2023-07-13T07:16:21;4.30;;;3.77;;
19414;SDS011;9843;48.882;12.592;2023-07-13T07:18:48;9.73;;;4.30;;
19414;SDS011;9843;48.882;12.592;2023-07-13T07:21:15;8.50;;;3.87;;
19414;SDS011;9843;48.882;12.592;2023-07-13T07:23:44;7.47;;;3.57;;
19414;SDS011;9843;48.882;12.592;2023-07-13T07:26:11;6.07;;;2.75;;
19414;SDS011;9843;48.882;12.592;2023-07-13T07:28:38;7.75;;;4.30;;
19414;SDS011;9843;48.882;12.592;2023-07-13T07:31:05;6.03;;;2.80;;
19414;SDS011;9843;48.882;12.592;2023-07-13T07:33:32;3.17;;;2.55;;
19414;SDS011;9843;48.882;12.592;2023-07-13T07:35:59;6.70;;;3.15;;
19414;SDS011;9843;48.882;12.592;2023-07-13T07:38:26;4.55;;;2.45;;
19414;SDS011;9843;48.882;12.592;2023-07-13T07:40:55;2.95;;;2.40;;
19414;SDS011;9843;48.882;12.592;2023-07-13T07:43:22;4.88;;;1.92;;
19414;SDS011;9843;48.882;12.592;2023-07-13T07:45:49;4.63;;;2.03;;
19414;SDS011;9843;48.882;12.592;2023-07-13T07:48:16;6.30;;;1.73;;
19414;SDS011;9843;48.882;12.592;2023-07-13T07:50:43;12.15;;;2.20;;
19414;SDS011;9843;48.882;12.592;2023-07-13T07:53:10;4.82;;;1.88;;
19414;SDS011;9843;48.882;12.592;2023-07-13T07:55:37;4.22;;;2.08;;
19414;SDS011;9843;48.882;12.592;2023-07-13T07:58:06;9.90;;;2.10;;
19414;SDS011;9843;48.882;12.592;2023-07-13T08:00:33;5.47;;;1.73;;
19414;SDS011;9843;48.882;12.592;2023-07-13T08:03:00;8.25;;;1.85;;
19414;SDS011;9843;48.882;12.592;2023-07-13T08:05:28;3.38;;;1.70;;
19414;SDS011;9843;48.882;12.592;2023-07-13T08:07:55;4.30;;;1.67;;
19414;SDS011;9843;48.882;12.592;2023-07-13T08:10:22;6.35;;;2.22;;
19414;SDS011;9843;48.882;12.592;2023-07-13T08:12:49;5.72;;;2.15;;
19414;SDS011;9843;48.882;12.592;2023-07-13T08:15:17;2.85;;;2.33;;
19414;SDS011;9843;48.882;12.592;2023-07-13T08:17:45;5.47;;;1.45;;
19414;SDS011;9843;48.882;12.592;2023-07-13T08:20:12;2.85;;;1.15;;
19414;SDS011;9843;48.882;12.592;2023-07-13T08:22:40;3.22;;;1.73;;
19414;SDS011;9843;48.882;12.592;2023-07-13T08:25:07;4.95;;;1.30;;
19414;SDS011;9843;48.882;12.592;2023-07-13T08:27:34;6.68;;;1.80;;
19414;SDS011;9843;48.882;12.592;2023-07-13T08:30:01;3.08;;;1.35;;
19414;SDS011;9843;48.882;12.592;2023-07-13T08:32:32;3.17;;;1.15;;
19414;SDS011;9843;48.882;12.592;2023-07-13T08:34:59;2.65;;;1.55;;
19414;SDS011;9843;48.882;12.592;2023-07-13T08:37:26;4.90;;;1.45;;
19414;SDS011;9843;48.882;12.592;2023-07-13T08:39:53;4.53;;;1.35;;
19414;SDS011;9843;48.882;12.592;2023-07-13T08:42:23;3.53;;;1.05;;
19414;SDS011;9843;48.882;12.592;2023-07-13T08:44:55;2.90;;;0.95;;
19414;SDS011;9843;48.882;12.592;2023-07-13T08:47:23;5.95;;;1.17;;
19414;SDS011;9843;48.882;12.592;2023-07-13T08:49:52;2.80;;;0.68;;
19414;SDS011;9843;48.882;12.592;2023-07-13T08:52:28;2.28;;;1.23;;
19414;SDS011;9843;48.882;12.592;2023-07-13T08:54:57;1.65;;;0.88;;
19414;SDS011;9843;48.882;12.592;2023-07-13T08:57:31;2.65;;;1.00;;
19414;SDS011;9843;48.882;12.592;2023-07-13T08:59:59;3.70;;;0.93;;
19414;SDS011;9843;48.882;12.592;2023-07-13T09:02:26;3.38;;;1.00;;
19414;SDS011;9843;48.882;12.592;2023-07-13T09:04:58;4.90;;;0.82;;
19414;SDS011;9843;48.882;12.592;2023-07-13T09:07:29;1.63;;;0.90;;
19414;SDS011;9843;48.882;12.592;2023-07-13T09:10:01;3.28;;;1.05;;
19414;SDS011;9843;48.882;12.592;2023-07-13T09:12:35;2.05;;;0.60;;
19414;SDS011;9843;48.882;12.592;2023-07-13T09:15:14;4.13;;;0.70;;
19414;SDS011;9843;48.882;12.592;2023-07-13T09:17:44;1.27;;;0.57;;
19414;SDS011;9843;48.882;12.592;2023-07-13T09:20:17;6.43;;;1.02;;
19414;SDS011;9843;48.882;12.592;2023-07-13T09:22:46;3.33;;;0.95;;
19414;SDS011;9843;48.882;12.592;2023-07-13T09:25:18;1.52;;;0.70;;
19414;SDS011;9843;48.882;12.592;2023-07-13T09:27:48;2.08;;;0.73;;
19414;SDS011;9843;48.882;12.592;2023-07-13T09:30:22;6.78;;;1.25;;
19414;SDS011;9843;48.882;12.592;2023-07-13T09:32:50;5.20;;;1.02;;
19414;SDS011;9843;48.882;12.592;2023-07-13T09:35:20;8.43;;;0.90;;
19414;SDS011;9843;48.882;12.592;2023-07-13T09:37:48;5.10;;;0.95;;
19414;SDS011;9843;48.882;12.592;2023-07-13T09:40:17;2.03;;;0.73;;
19414;SDS011;9843;48.882;12.592;2023-07-13T09:42:48;2.72;;;0.65;;
19414;SDS011;9843;48.882;12.592;2023-07-13T09:45:17;2.45;;;0.60;;
19414;SDS011;9843;48.882;12.592;2023-07-13T09:47:53;1.35;;;0.40;;
19414;SDS011;9843;48.882;12.592;2023-07-13T09:50:26;1.40;;;0.77;;
19414;SDS011;9843;48.882;12.592;2023-07-13T09:52:54;3.13;;;0.70;;
19414;SDS011;9843;48.882;12.592;2023-07-13T09:55:25;9.00;;;1.05;;
19414;SDS011;9843;48.882;12.592;2023-07-13T09:57:52;7.53;;;1.52;;
19414;SDS011;9843;48.882;12.592;2023-07-13T10:00:20;3.70;;;0.70;;
19414;SDS011;9843;48.882;12.592;2023-07-13T10:02:49;1.13;;;0.60;;
19414;SDS011;9843;48.882;12.592;2023-07-13T10:05:24;2.88;;;0.60;;
19414;SDS011;9843;48.882;12.592;2023-07-13T10:07:53;4.63;;;1.77;;
19414;SDS011;9843;48.882;12.592;2023-07-13T10:10:23;3.30;;;0.65;;
19414;SDS011;9843;48.882;12.592;2023-07-13T10:12:50;1.27;;;0.40;;
19414;SDS011;9843;48.882;12.592;2023-07-13T10:15:18;3.30;;;1.30;;
19414;SDS011;9843;48.882;12.592;2023-07-13T10:17:46;5.03;;;0.85;;
19414;SDS011;9843;48.882;12.592;2023-07-13T10:20:13;2.30;;;0.73;;
19414;SDS011;9843;48.882;12.592;2023-07-13T10:22:42;7.25;;;1.95;;
19414;SDS011;9843;48.882;12.592;2023-07-13T10:25:17;4.85;;;1.00;;
19414;SDS011;9843;48.882;12.592;2023-07-13T10:27:44;1.33;;;0.88;;
19414;SDS011;9843;48.882;12.592;2023-07-13T10:30:13;0.80;;;0.63;;
19414;SDS011;9843;48.882;12.592;2023-07-13T10:32:42;2.40;;;0.65;;
19414;SDS011;9843;48.882;12.592;2023-07-13T10:35:10;0.75;;;0.52;;
19414;SDS011;9843;48.882;12.592;2023-07-13T10:37:40;1.58;;;0.75;;
19414;SDS011;9843;48.882;12.592;2023-07-13T10:40:11;4.75;;;0.93;;
19414;SDS011;9843;48.882;12.592;2023-07-13T10:42:42;1.58;;;0.70;;
19414;SDS011;9843;48.882;12.592;2023-07-13T10:45:13;2.42;;;0.70;;
19414;SDS011;9843;48.882;12.592;2023-07-13T10:47:40;4.10;;;1.15;;
19414;SDS011;9843;48.882;12.592;2023-07-13T10:50:08;7.88;;;0.95;;
19414;SDS011;9843;48.882;12.592;2023-07-13T10:52:42;3.28;;;0.70;;
19414;SDS011;9843;48.882;12.592;2023-07-13T10:55:30;3.33;;;0.60;;
19414;SDS011;9843;48.882;12.592;2023-07-13T10:58:00;5.32;;;1.10;;
19414;SDS011;9843;48.882;12.592;2023-07-13T11:00:30;2.00;;;0.95;;
19414;SDS011;9843;48.882;12.592;2023-07-13T11:03:00;10.60;;;1.20;;
19414;SDS011;9843;48.882;12.592;2023-07-13T11:05:29;1.88;;;0.80;;
19414;SDS011;9843;48.882;12.592;2023-07-13T11:08:02;1.23;;;0.90;;
19414;SDS011;9843;48.882;12.592;2023-07-13T11:10:46;3.80;;;0.77;;
19414;SDS011;9843;48.882;12.592;2023-07-13T11:15:57;5.15;;;0.65;;
19414;SDS011;9843;48.882;12.592;2023-07-13T11:18:24;9.25;;;1.38;;
19414;SDS011;9843;48.882;12.592;2023-07-13T11:20:51;2.35;;;1.15;;
19414;SDS011;9843;48.882;12.592;2023-07-13T11:23:20;4.93;;;0.90;;
19414;SDS011;9843;48.882;12.592;2023-07-13T11:25:46;1.90;;;0.57;;
19414;SDS011;9843;48.882;12.592;2023-07-13T11:28:16;2.22;;;0.80;;
19414;SDS011;9843;48.882;12.592;2023-07-13T11:30:46;2.30;;;0.70;;
19414;SDS011;9843;48.882;12.592;2023-07-13T11:33:16;2.55;;;1.05;;
19414;SDS011;9843;48.882;12.592;2023-07-13T11:35:49;3.03;;;0.85;;
19414;SDS011;9843;48.882;12.592;2023-07-13T11:38:18;2.90;;;0.80;;
19414;SDS011;9843;48.882;12.592;2023-07-13T11:40:47;5.45;;;1.52;;
19414;SDS011;9843;48.882;12.592;2023-07-13T11:43:15;5.03;;;1.35;;
19414;SDS011;9843;48.882;12.592;2023-07-13T11:45:43;2.00;;;0.93;;
19414;SDS011;9843;48.882;12.592;2023-07-13T11:48:27;3.50;;;1.67;;
19414;SDS011;9843;48.882;12.592;2023-07-13T11:50:57;7.03;;;0.60;;
19414;SDS011;9843;48.882;12.592;2023-07-13T11:53:26;2.40;;;0.70;;
19414;SDS011;9843;48.882;12.592;2023-07-13T11:55:54;3.45;;;0.80;;
19414;SDS011;9843;48.882;12.592;2023-07-13T11:58:23;2.10;;;1.10;;
19414;SDS011;9843;48.882;12.592;2023-07-13T12:00:50;4.22;;;0.70;;
19414;SDS011;9843;48.882;12.592;2023-07-13T12:03:20;1.67;;;0.60;;
19414;SDS011;9843;48.882;12.592;2023-07-13T12:05:57;1.40;;;0.95;;
19414;SDS011;9843;48.882;12.592;2023-07-13T12:08:25;8.13;;;1.13;;
19414;SDS011;9843;48.882;12.592;2023-07-13T12:11:03;4.30;;;2.40;;
19414;SDS011;9843;48.882;12.592;2023-07-13T12:13:35;3.42;;;0.70;;
19414;SDS011;9843;48.882;12.592;2023-07-13T12:16:02;1.42;;;0.73;;
19414;SDS011;9843;48.882;12.592;2023-07-13T12:18:30;5.18;;;0.57;;
19414;SDS011;9843;48.882;12.592;2023-07-13T12:21:00;4.28;;;1.42;;
19414;SDS011;9843;48.882;12.592;2023-07-13T12:23:29;3.72;;;0.63;;
19414;SDS011;9843;48.882;12.592;2023-07-13T12:25:57;1.35;;;0.52;;
19414;SDS011;9843;48.882;12.592;2023-07-13T12:28:30;2.97;;;1.67;;
19414;SDS011;9843;48.882;12.592;2023-07-13T12:30:57;1.55;;;0.98;;
19414;SDS011;9843;48.882;12.592;2023-07-13T12:33:27;3.60;;;1.10;;
19414;SDS011;9843;48.882;12.592;2023-07-13T12:35:54;5.53;;;2.00;;
19414;SDS011;9843;48.882;12.592;2023-07-13T12:38:24;2.53;;;0.73;;
19414;SDS011;9843;48.882;12.592;2023-07-13T12:40:51;2.67;;;0.88;;
19414;SDS011;9843;48.882;12.592;2023-07-13T12:43:19;2.10;;;0.52;;
19414;SDS011;9843;48.882;12.592;2023-07-13T12:45:56;0.82;;;0.50;;
19414;SDS011;9843;48.882;12.592;2023-07-13T12:48:23;1.50;;;0.63;;
19414;SDS011;9843;48.882;12.592;2023-07-13T12:50:51;3.25;;;0.80;;
19414;SDS011;9843;48.882;12.592;2023-07-13T12:53:21;1.80;;;0.98;;
19414;SDS011;9843;48.882;12.592;2023-07-13T12:55:50;3.67;;;1.23;;
19414;SDS011;9843;48.882;12.592;2023-07-13T12:58:18;1.73;;;0.70;;
19414;SDS011;9843;48.882;12.592;2023-07-13T13:00:50;1.25;;;0.82;;
19414;SDS011;9843;48.882;12.592;2023-07-13T13:03:21;3.17;;;1.02;;
19414;SDS011;9843;48.882;12.592;2023-07-13T13:05:49;4.65;;;0.77;;
19414;SDS011;9843;48.882;12.592;2023-07-13T13:08:16;2.65;;;0.77;;
19414;SDS011;9843;48.882;12.592;2023-07-13T13:10:43;3.38;;;0.77;;
19414;SDS011;9843;48.882;12.592;2023-07-13T13:13:12;4.13;;;1.63;;
19414;SDS011;9843;48.882;12.592;2023-07-13T13:15:39;1.23;;;0.90;;
19414;SDS011;9843;48.882;12.592;2023-07-13T13:18:09;4.40;;;1.48;;
19414;SDS011;9843;48.882;12.592;2023-07-13T13:20:41;1.60;;;0.80;;
19414;SDS011;9843;48.882;12.592;2023-07-13T13:23:10;1.63;;;1.25;;
19414;SDS011;9843;48.882;12.592;2023-07-13T13:25:37;1.50;;;0.77;;
19414;SDS011;9843;48.882;12.592;2023-07-13T13:28:04;1.92;;;0.70;;
19414;SDS011;9843;48.882;12.592;2023-07-13T13:30:33;3.13;;;0.60;;
19414;SDS011;9843;48.882;12.592;2023-07-13T13:33:00;1.42;;;0.70;;
19414;SDS011;9843;48.882;12.592;2023-07-13T13:35:27;4.35;;;0.70;;
19414;SDS011;9843;48.882;12.592;2023-07-13T13:37:54;1.05;;;0.52;;
19414;SDS011;9843;48.882;12.592;2023-07-13T13:40:21;1.45;;;0.70;;
19414;SDS011;9843;48.882;12.592;2023-07-13T13:42:49;4.53;;;0.68;;
19414;SDS011;9843;48.882;12.592;2023-07-13T13:45:17;5.25;;;0.90;;
19414;SDS011;9843;48.882;12.592;2023-07-13T13:47:47;1.77;;;0.88;;
19414;SDS011;9843;48.882;12.592;2023-07-13T13:50:15;1.63;;;0.80;;
19414;SDS011;9843;48.882;12.592;2023-07-13T13:52:43;0.73;;;0.50;;
19414;SDS011;9843;48.882;12.592;2023-07-13T13:55:13;1.98;;;0.70;;
19414;SDS011;9843;48.882;12.592;2023-07-13T13:57:40;3.00;;;0.73;;
19414;SDS011;9843;48.882;12.592;2023-07-13T14:00:08;1.02;;;0.60;;
19414;SDS011;9843;48.882;12.592;2023-07-13T14:02:39;1.63;;;0.88;;
19414;SDS011;9843;48.882;12.592;2023-07-13T14:05:09;1.45;;;0.85;;
19414;SDS011;9843;48.882;12.592;2023-07-13T14:07:38;2.88;;;0.80;;
19414;SDS011;9843;48.882;12.592;2023-07-13T14:10:10;1.20;;;0.60;;
19414;SDS011;9843;48.882;12.592;2023-07-13T14:12:38;1.67;;;0.77;;
19414;SDS011;9843;48.882;12.592;2023-07-13T14:15:05;3.13;;;1.02;;
19414;SDS011;9843;48.882;12.592;2023-07-13T14:17:33;2.80;;;0.88;;
19414;SDS011;9843;48.882;12.592;2023-07-13T14:20:00;1.77;;;0.77;;
19414;SDS011;9843;48.882;12.592;2023-07-13T14:22:30;2.17;;;1.05;;
19414;SDS011;9843;48.882;12.592;2023-07-13T14:24:57;2.08;;;0.80;;
19414;SDS011;9843;48.882;12.592;2023-07-13T14:27:24;1.20;;;0.85;;
19414;SDS011;9843;48.882;12.592;2023-07-13T14:29:52;1.48;;;0.90;;
19414;SDS011;9843;48.882;12.592;2023-07-13T14:32:19;4.57;;;1.38;;
19414;SDS011;9843;48.882;12.592;2023-07-13T14:34:46;2.60;;;0.73;;
19414;SDS011;9843;48.882;12.592;2023-07-13T14:37:13;1.73;;;1.17;;
19414;SDS011;9843;48.882;12.592;2023-07-13T14:39:43;3.65;;;0.85;;
19414;SDS011;9843;48.882;12.592;2023-07-13T14:42:10;2.63;;;1.05;;
19414;SDS011;9843;48.882;12.592;2023-07-13T14:44:38;3.22;;;1.27;;
19414;SDS011;9843;48.882;12.592;2023-07-13T14:47:05;7.15;;;1.65;;
19414;SDS011;9843;48.882;12.592;2023-07-13T14:49:34;1.52;;;1.33;;
19414;SDS011;9843;48.882;12.592;2023-07-13T14:52:02;1.08;;;0.52;;
19414;SDS011;9843;48.882;12.592;2023-07-13T14:54:29;2.05;;;1.00;;